Observation data for Denver City on 08/11/2020      Previous  Date       Current Mesonet Observations  Soil Data  Daily Summary Page  Observations in Plain Language
KDVS 110500Z 18007KT 27/15 A30 RMK A01 T02720152  RH  050%=      5-min Rain = 0
KDVS 110505Z 19007KT 27/15 A3001 RMK A01 T02700152  RH  051%=      5-min Rain = 0
KDVS 110510Z 19008KT 27/15 A30 RMK A01 T02690153  RH  051%=      5-min Rain = 0
KDVS 110515Z 19009KT 27/15 A3001 RMK A01 T02680153  RH  052%=      5-min Rain = 0
KDVS 110520Z 19008KT 27/15 A3001 RMK A01 T02670153  RH  052%=      5-min Rain = 0
KDVS 110525Z 19007KT 26/15 A3001 RMK A01 T02640153  RH  053%=      5-min Rain = 0
KDVS 110530Z 19007KT 26/15 A3001 RMK A01 T02620153  RH  053%=      5-min Rain = 0
KDVS 110535Z 18007KT 26/15 A3001 RMK A01 T02600153  RH  054%=      5-min Rain = 0
KDVS 110540Z 18007KT 26/15 A30 RMK A01 T02600152  RH  054%=      5-min Rain = 0
KDVS 110545Z 18008KT 26/15 A30 RMK A01 T02620151  RH  053%=      5-min Rain = 0
KDVS 110550Z 18009KT 26/15 A30 RMK A01 T02630151  RH  052%=      5-min Rain = 0
KDVS 110555Z 18009KT 26/15 A30 RMK A01 T02630151  RH  052%=      5-min Rain = 0
KDVS 110600Z 18009KT 26/15 A30 RMK A01 T02630151  RH  052%=      5-min Rain = 0
KDVS 110605Z 19009KT 26/15 A30 RMK A01 T02620151  RH  053%=      5-min Rain = 0
KDVS 110610Z 19009KT 26/15 A30 RMK A01 T02610151  RH  053%=      5-min Rain = 0
KDVS 110615Z 19008KT 26/15 A30 RMK A01 T02600150  RH  053%=      5-min Rain = 0
KDVS 110620Z 19008KT 26/15 A30 RMK A01 T02580150  RH  054%=      5-min Rain = 0
KDVS 110625Z 19008KT 26/15 A30 RMK A01 T02570150  RH  054%=      5-min Rain = 0
KDVS 110630Z 19008KT 26/15 A30 RMK A01 T02560150  RH  054%=      5-min Rain = 0
KDVS 110635Z 19008KT 26/15 A30 RMK A01 T02550149  RH  054%=      5-min Rain = 0
KDVS 110640Z 19008KT 25/15 A30 RMK A01 T02540148  RH  054%=      5-min Rain = 0
KDVS 110645Z 18009KT 25/15 A30 RMK A01 T02530147  RH  054%=      5-min Rain = 0
KDVS 110650Z 18010KT 25/15 A30 RMK A01 T02540145  RH  053%=      5-min Rain = 0
KDVS 110655Z 18010KT 26/14 A30 RMK A01 T02560143  RH  052%=      5-min Rain = 0
KDVS 110700Z 18010KT 26/14 A30 RMK A01 T02570141  RH  051%=      5-min Rain = 0
KDVS 110705Z 18010KT 26/14 A30 RMK A01 T02570140  RH  051%=      5-min Rain = 0
KDVS 110710Z 18009KT 26/14 A30 RMK A01 T02550139  RH  051%=      5-min Rain = 0
KDVS 110715Z 18010KT 26/14 A30 RMK A01 T02550138  RH  051%=      5-min Rain = 0
KDVS 110720Z 18009KT 25/14 A30 RMK A01 T02540138  RH  050%=      5-min Rain = 0
KDVS 110725Z 18009KT 25/14 A30 RMK A01 T02540137  RH  051%=      5-min Rain = 0
KDVS 110730Z 19009KT 25/14 A30 RMK A01 T02520137  RH  051%=      5-min Rain = 0
KDVS 110735Z 19008KT 25/14 A30 RMK A01 T02510138  RH  052%=      5-min Rain = 0
KDVS 110740Z 19008KT 25/14 A30 RMK A01 T02490138  RH  052%=      5-min Rain = 0
KDVS 110745Z 19007KT 25/14 A3001 RMK A01 T02470138  RH  053%=      5-min Rain = 0
KDVS 110750Z 19007KT 25/14 A3001 RMK A01 T02460138  RH  053%=      5-min Rain = 0
KDVS 110755Z 19007KT 25/14 A3001 RMK A01 T02450138  RH  054%=      5-min Rain = 0
KDVS 110800Z 19007KT 24/14 A3001 RMK A01 T02440139  RH  054%=      5-min Rain = 0
KDVS 110805Z 19007KT 24/14 A3001 RMK A01 T02430138  RH  054%=      5-min Rain = 0
KDVS 110810Z 19007KT 24/14 A3001 RMK A01 T02420138  RH  054%=      5-min Rain = 0
KDVS 110815Z 19008KT 24/14 A30 RMK A01 T02400138  RH  055%=      5-min Rain = 0
KDVS 110820Z 18007KT 24/14 A30 RMK A01 T02370139  RH  056%=      5-min Rain = 0
KDVS 110825Z 18007KT 24/14 A30 RMK A01 T02350138  RH  057%=      5-min Rain = 0
KDVS 110830Z 18007KT 24/14 A30 RMK A01 T02360137  RH  056%=      5-min Rain = 0
KDVS 110835Z 18007KT 24/14 A30 RMK A01 T02370137  RH  056%=      5-min Rain = 0
KDVS 110840Z 18007KT 24/14 A30 RMK A01 T02370137  RH  056%=      5-min Rain = 0
KDVS 110845Z 19007KT 24/14 A30 RMK A01 T02360137  RH  056%=      5-min Rain = 0
KDVS 110850Z 19008KT 24/14 A30 RMK A01 T02360137  RH  056%=      5-min Rain = 0
KDVS 110855Z 18008KT 23/14 A30 RMK A01 T02340137  RH  057%=      5-min Rain = 0
KDVS 110900Z 18008KT 23/14 A30 RMK A01 T02320137  RH  057%=      5-min Rain = 0
KDVS 110905Z 18008KT 23/14 A30 RMK A01 T02310138  RH  058%=      5-min Rain = 0
KDVS 110910Z 18008KT 23/14 A30 RMK A01 T02310137  RH  058%=      5-min Rain = 0
KDVS 110915Z 17008KT 23/14 A30 RMK A01 T02330136  RH  057%=      5-min Rain = 0
KDVS 110920Z 16006KT 23/14 A30 RMK A01 T02330136  RH  057%=      5-min Rain = 0
KDVS 110925Z 11005KT 23/14 A3001 RMK A01 T02300137  RH  058%=      5-min Rain = 0
KDVS 110930Z 07005KT 23/14 A3001 RMK A01 T02250138  RH  060%=      5-min Rain = 0
KDVS 110935Z 08004KT 22/14 A3001 RMK A01 T02230138  RH  061%=      5-min Rain = 0
KDVS 110940Z 12004KT 22/14 A3001 RMK A01 T02220138  RH  061%=      5-min Rain = 0
KDVS 110945Z 14004KT 22/14 A3001 RMK A01 T02210138  RH  062%=      5-min Rain = 0
KDVS 110950Z 14004KT 22/14 A3001 RMK A01 T02200139  RH  062%=      5-min Rain = 0
KDVS 110955Z 13004KT 22/14 A3001 RMK A01 T02190140  RH  063%=      5-min Rain = 0
KDVS 111000Z 11006KT 22/14 A3001 RMK A01 T02170140  RH  064%=      5-min Rain = 0
KDVS 111005Z 12007KT 22/14 A3002 RMK A01 T02180139  RH  064%=      5-min Rain = 0
KDVS 111010Z 12007KT 22/14 A3002 RMK A01 T02190137  RH  062%=      5-min Rain = 0
KDVS 111015Z 10007KT 22/14 A3002 RMK A01 T02210135  RH  061%=      5-min Rain = 0
KDVS 111020Z 08009G14KT 22/13 A3003 RMK A01 T02230133  RH  059%=      5-min Rain = 0
KDVS 111025Z 08011KT 23/13 A3003 RMK A01 T02270131  RH  057%=      5-min Rain = 0
KDVS 111030Z 10009KT 23/13 A3003 RMK A01 T02290130  RH  056%=      5-min Rain = 0
KDVS 111035Z 13010KT 23/13 A3003 RMK A01 T02320129  RH  054%=      5-min Rain = 0
KDVS 111040Z 13010KT 23/13 A3003 RMK A01 T02330129  RH  054%=      5-min Rain = 0
KDVS 111045Z 12011KT 23/13 A3003 RMK A01 T02340129  RH  054%=      5-min Rain = 0
KDVS 111050Z 11011KT 23/13 A3004 RMK A01 T02320129  RH  054%=      5-min Rain = 0
KDVS 111055Z 12009KT 23/13 A3004 RMK A01 T02300129  RH  055%=      5-min Rain = 0
KDVS 111100Z 12010KT 23/13 A3004 RMK A01 T02290129  RH  055%=      5-min Rain = 0
KDVS 111105Z 12011KT 23/13 A3004 RMK A01 T02280129  RH  056%=      5-min Rain = 0
KDVS 111110Z 11011KT 23/13 A3004 RMK A01 T02260130  RH  057%=      5-min Rain = 0
KDVS 111115Z 12011KT 23/13 A3004 RMK A01 T02250130  RH  057%=      5-min Rain = 0
KDVS 111120Z 13011KT 23/13 A3003 RMK A01 T02250130  RH  057%=      5-min Rain = 0
KDVS 111125Z 13011KT 23/13 A3003 RMK A01 T02250130  RH  057%=      5-min Rain = 0
KDVS 111130Z 13011KT 22/13 A3003 RMK A01 T02240130  RH  058%=      5-min Rain = 0
KDVS 111135Z 12010KT 22/13 A3004 RMK A01 T02230131  RH  058%=      5-min Rain = 0
KDVS 111140Z 12010KT 22/13 A3004 RMK A01 T02230131  RH  058%=      5-min Rain = 0
KDVS 111145Z 13008KT 22/13 A3005 RMK A01 T02230131  RH  058%=      5-min Rain = 0
KDVS 111150Z 14007KT 22/13 A3005 RMK A01 T02230131  RH  058%=      5-min Rain = 0
KDVS 111155Z 14006KT 22/13 A3005 RMK A01 T02230132  RH  059%=      5-min Rain = 0
KDVS 111200Z 15007KT 22/13 A3005 RMK A01 T02230132  RH  059%=      5-min Rain = 0
KDVS 111205Z 14008KT 22/13 A3005 RMK A01 T02230132  RH  059%=      5-min Rain = 0
KDVS 111210Z 14011KT 22/13 A3005 RMK A01 T02230133  RH  059%=      5-min Rain = 0
KDVS 111215Z 14012KT 22/13 A3005 RMK A01 T02220133  RH  059%=      5-min Rain = 0
KDVS 111220Z 14013KT 22/13 A3005 RMK A01 T02220133  RH  059%=      5-min Rain = 0
KDVS 111225Z 14010KT 22/13 A3005 RMK A01 T02220133  RH  059%=      5-min Rain = 0
KDVS 111230Z 14006G11KT 22/13 A3005 RMK A01 T02230134  RH  059%=      5-min Rain = 0
KDVS 111235Z 17002KT 23/14 A3006 RMK A01 T02260135  RH  059%=      5-min Rain = 0
KDVS 111240Z 28003KT 23/14 A3006 RMK A01 T02280135  RH  058%=      5-min Rain = 0
KDVS 111245Z 20010G18KT 23/14 A3006 RMK A01 T02300136  RH  058%=      5-min Rain = 0
KDVS 111250Z 16021G32KT 24/14 A3005 RMK A01 T02360137  RH  056%=      5-min Rain = 0
KDVS 111255Z 16023G30KT 24/14 A3003 RMK A01 T02380138  RH  056%=      5-min Rain = 0
KDVS 111300Z 17018G23KT 24/14 A3004 RMK A01 T02370141  RH  057%=      5-min Rain = 0
KDVS 111305Z 16017G25KT 24/14 A3004 RMK A01 T02380143  RH  058%=      5-min Rain = 0
KDVS 111310Z 15018G25KT 23/15 A3003 RMK A01 T02310149  RH  063%=      5-min Rain = 0
KDVS 111315Z 15018G23KT 23/15 A3004 RMK A01 T02290150  RH  064%=      5-min Rain = 0
KDVS 111320Z 14016G23KT 24/15 A3005 RMK A01 T02360149  RH  061%=      5-min Rain = 0
KDVS 111325Z 13017G22KT 24/15 A3005 RMK A01 T02400147  RH  058%=      5-min Rain = 0
KDVS 111330Z 14013G19KT 24/15 A3006 RMK A01 T02430147  RH  057%=      5-min Rain = 0
KDVS 111335Z 13012G18KT 24/15 A3006 RMK A01 T02430145  RH  056%=      5-min Rain = 0
KDVS 111340Z 12008KT 25/15 A3006 RMK A01 T02480146  RH  055%=      5-min Rain = 0
KDVS 111345Z 11006KT 25/15 A3007 RMK A01 T02530150  RH  055%=      5-min Rain = 0
KDVS 111350Z 10007G12KT 25/15 A3007 RMK A01 T02530151  RH  056%=      5-min Rain = 0
KDVS 111355Z 10005KT 26/15 A3007 RMK A01 T02560152  RH  055%=      5-min Rain = 0
KDVS 111400Z 10004KT 26/15 A3007 RMK A01 T02570152  RH  055%=      5-min Rain = 0
KDVS 111405Z 14003KT 26/15 A3007 RMK A01 T02600153  RH  054%=      5-min Rain = 0
KDVS 111410Z 18004G10KT 26/15 A3007 RMK A01 T02610153  RH  054%=      5-min Rain = 0
KDVS 111415Z 17013KT 26/15 A3007 RMK A01 T02630152  RH  053%=      5-min Rain = 0
KDVS 111420Z 18013KT 26/15 A3007 RMK A01 T02590154  RH  055%=      5-min Rain = 0
KDVS 111425Z 19012KT 26/15 A3007 RMK A01 T02570154  RH  055%=      5-min Rain = 0
KDVS 111430Z 18011KT 26/15 A3007 RMK A01 T02570154  RH  055%=      5-min Rain = 0
KDVS 111435Z 19011G17KT 26/16 A3006 RMK A01 T02600156  RH  055%=      5-min Rain = 0
KDVS 111440Z 19014KT 26/15 A3006 RMK A01 T02590154  RH  055%=      5-min Rain = 0
KDVS 111445Z 18012KT 26/16 A3007 RMK A01 T02630156  RH  054%=      5-min Rain = 0
KDVS 111450Z 17012KT 27/15 A3007 RMK A01 T02690154  RH  052%=      5-min Rain = 0
KDVS 111455Z 16014KT 27/15 A3007 RMK A01 T02670153  RH  052%=      5-min Rain = 0
KDVS 111500Z 16012KT 27/15 A3007 RMK A01 T02680154  RH  052%=      5-min Rain = 0
KDVS 111505Z 17012KT 27/15 A3007 RMK A01 T02700154  RH  051%=      5-min Rain = 0
KDVS 111510Z 17011KT 27/16 A3006 RMK A01 T02720155  RH  051%=      5-min Rain = 0
KDVS 111515Z 16011KT 28/15 A3006 RMK A01 T02760154  RH  050%=      5-min Rain = 0
KDVS 111520Z 16010KT 28/15 A3006 RMK A01 T02770154  RH  049%=      5-min Rain = 0
KDVS 111525Z 15009KT 28/15 A3006 RMK A01 T02790153  RH  049%=      5-min Rain = 0
KDVS 111530Z 17010KT 28/16 A3006 RMK A01 T02810155  RH  048%=      5-min Rain = 0
KDVS 111535Z 17009KT 28/15 A3006 RMK A01 T02810154  RH  048%=      5-min Rain = 0
KDVS 111540Z 17008KT 28/16 A3006 RMK A01 T02830155  RH  048%=      5-min Rain = 0
KDVS 111545Z 17011KT 29/15 A3006 RMK A01 T02900154  RH  046%=      5-min Rain = 0
KDVS 111550Z 16012KT 29/15 A3005 RMK A01 T02920152  RH  045%=      5-min Rain = 0
KDVS 111555Z 16010KT 30/16 A3005 RMK A01 T02980158  RH  045%=      5-min Rain = 0
KDVS 111600Z 16013KT 30/16 A3005 RMK A01 T03020158  RH  044%=      5-min Rain = 0
KDVS 111605Z 16015KT 30/16 A3005 RMK A01 T03030157  RH  043%=      5-min Rain = 0
KDVS 111610Z 15014KT 30/16 A3005 RMK A01 T03030158  RH  044%=      5-min Rain = 0
KDVS 111615Z 15015KT 31/16 A3005 RMK A01 T03060155  RH  042%=      5-min Rain = 0
KDVS 111620Z 16013KT 31/15 A3005 RMK A01 T03070151  RH  041%=      5-min Rain = 0
KDVS 111625Z 16015G20KT 31/15 A3005 RMK A01 T03120150  RH  039%=      5-min Rain = 0
KDVS 111630Z 16016KT 31/15 A3005 RMK A01 T03100145  RH  038%=      5-min Rain = 0
KDVS 111635Z 16015G20KT 31/15 A3005 RMK A01 T03100149  RH  039%=      5-min Rain = 0
KDVS 111640Z 16014G19KT 32/15 A3005 RMK A01 T03180149  RH  038%=      5-min Rain = 0
KDVS 111645Z 16016G21KT 32/14 A3005 RMK A01 T03160144  RH  037%=      5-min Rain = 0
KDVS 111650Z 17015G20KT 32/14 A3005 RMK A01 T03170143  RH  036%=      5-min Rain = 0
KDVS 111655Z 17015G20KT 32/15 A3004 RMK A01 T03240146  RH  036%=      5-min Rain = 0
KDVS 111700Z 17017KT 33/14 A3004 RMK A01 T03250141  RH  034%=      5-min Rain = 0
KDVS 111705Z 16015KT 33/14 A3004 RMK A01 T03260143  RH  035%=      5-min Rain = 0
KDVS 111710Z 17018KT 33/14 A3004 RMK A01 T03310138  RH  033%=      5-min Rain = 0
KDVS 111715Z 17017KT 33/14 A3003 RMK A01 T03310140  RH  033%=      5-min Rain = 0
KDVS 111720Z 17017G22KT 34/14 A3003 RMK A01 T03370141  RH  032%=      5-min Rain = 0
KDVS 111725Z 16018G25KT 34/14 A3003 RMK A01 T03380137  RH  031%=      5-min Rain = 0
KDVS 111730Z 16017G22KT 34/14 A3003 RMK A01 T03410139  RH  031%=      5-min Rain = 0
KDVS 111735Z 16018KT 34/14 A3003 RMK A01 T03430138  RH  030%=      5-min Rain = 0
KDVS 111740Z 16017G22KT 35/14 A3003 RMK A01 T03460139  RH  030%=      5-min Rain = 0
KDVS 111745Z 16016G21KT 35/14 A3003 RMK A01 T03480139  RH  030%=      5-min Rain = 0
KDVS 111750Z 17016G21KT 35/14 A3002 RMK A01 T03540139  RH  029%=      5-min Rain = 0
KDVS 111755Z 17016G21KT 35/14 A3002 RMK A01 T03540135  RH  028%=      5-min Rain = 0
KDVS 111800Z 17017G22KT 36/13 A3002 RMK A01 T03550126  RH  026%=      5-min Rain = 0
KDVS 111805Z 16015G20KT 36/12 A3002 RMK A01 T03600124  RH  025%=      5-min Rain = 0
KDVS 111810Z 16016G23KT 36/12 A3002 RMK A01 T03590118  RH  024%=      5-min Rain = 0
KDVS 111815Z 17016KT 36/12 A3002 RMK A01 T03600117  RH  024%=      5-min Rain = 0
KDVS 111820Z 17015G21KT 36/12 A3002 RMK A01 T03630115  RH  023%=      5-min Rain = 0
KDVS 111825Z 17015G21KT 36/12 A3002 RMK A01 T03610117  RH  024%=      5-min Rain = 0
KDVS 111830Z 17016G21KT 36/12 A3002 RMK A01 T03640115  RH  023%=      5-min Rain = 0
KDVS 111835Z 16015KT 36/12 A3002 RMK A01 T03630115  RH  023%=      5-min Rain = 0
KDVS 111840Z 17015G21KT 36/12 A3001 RMK A01 T03640116  RH  023%=      5-min Rain = 0
KDVS 111845Z 18013G19KT 37/12 A3001 RMK A01 T03650120  RH  024%=      5-min Rain = 0
KDVS 111850Z 19013G19KT 36/12 A3001 RMK A01 T03640117  RH  023%=      5-min Rain = 0
KDVS 111855Z 17014G20KT 37/12 A3001 RMK A01 T03670116  RH  023%=      5-min Rain = 0
KDVS 111900Z 19014G19KT 37/11 A3001 RMK A01 T03690114  RH  022%=      5-min Rain = 0
KDVS 111905Z 18014G22KT 37/12 A30 RMK A01 T03700115  RH  022%=      5-min Rain = 0
KDVS 111910Z 17015G21KT 37/12 A30 RMK A01 T03720115  RH  022%=      5-min Rain = 0
KDVS 111915Z 19014G21KT 37/12 A30 RMK A01 T03740115  RH  022%=      5-min Rain = 0
KDVS 111920Z 17015G20KT 37/11 A30 RMK A01 T03720111  RH  021%=      5-min Rain = 0
KDVS 111925Z 17013G20KT 37/11 A30 RMK A01 T03720112  RH  022%=      5-min Rain = 0
KDVS 111930Z 18014G20KT 37/11 A30 RMK A01 T03720112  RH  022%=      5-min Rain = 0
KDVS 111935Z 20013KT 38/11 A30 RMK A01 T03750109  RH  021%=      5-min Rain = 0
KDVS 111940Z 17013G21KT 38/11 A30 RMK A01 T03750111  RH  021%=      5-min Rain = 0
KDVS 111945Z 20015G20KT 38/11 A2999 RMK A01 T03780113  RH  021%=      5-min Rain = 0
KDVS 111950Z 19014KT 38/11 A30 RMK A01 T03760113  RH  021%=      5-min Rain = 0
KDVS 111955Z 18012G17KT 38/11 A30 RMK A01 T03760110  RH  021%=      5-min Rain = 0
KDVS 112000Z 17011G22KT 38/11 A2999 RMK A01 T03790113  RH  021%=      5-min Rain = 0
KDVS 112005Z 18012G17KT 38/11 A2999 RMK A01 T03800110  RH  021%=      5-min Rain = 0
KDVS 112010Z 18012G17KT 38/11 A2999 RMK A01 T03810108  RH  020%=      5-min Rain = 0
KDVS 112015Z 19012G19KT 38/11 A2999 RMK A01 T03810112  RH  021%=      5-min Rain = 0
KDVS 112020Z 20015G20KT 38/11 A2999 RMK A01 T03810108  RH  020%=      5-min Rain = 0
KDVS 112025Z 21011G18KT 38/11 A2999 RMK A01 T03790107  RH  020%=      5-min Rain = 0
KDVS 112030Z 21009G17KT 38/11 A2998 RMK A01 T03750108  RH  021%=      5-min Rain = 0
KDVS 112035Z 19012G18KT 38/11 A2998 RMK A01 T03800108  RH  020%=      5-min Rain = 0
KDVS 112040Z 21011G17KT 38/11 A2998 RMK A01 T03810106  RH  020%=      5-min Rain = 0
KDVS 112045Z 23008KT 38/11 A2998 RMK A01 T03780105  RH  020%=      5-min Rain = 0
KDVS 112050Z 17009G14KT 38/10 A2998 RMK A01 T03800103  RH  019%=      5-min Rain = 0
KDVS 112055Z 19007G12KT 38/11 A2998 RMK A01 T03840106  RH  019%=      5-min Rain = 0
KDVS 112100Z 18006KT 38/11 A2997 RMK A01 T03840107  RH  020%=      5-min Rain = 0
KDVS 112105Z 19008G13KT 38/11 A2997 RMK A01 T03780107  RH  020%=      5-min Rain = 0
KDVS 112110Z 21013G18KT 38/11 A2997 RMK A01 T03830107  RH  020%=      5-min Rain = 0
KDVS 112115Z 20010G15KT 38/10 A2997 RMK A01 T03810104  RH  020%=      5-min Rain = 0
KDVS 112120Z 20007G14KT 38/11 A2997 RMK A01 T03830105  RH  019%=      5-min Rain = 0
KDVS 112125Z 19005G10KT 38/10 A2997 RMK A01 T03820103  RH  019%=      5-min Rain = 0
KDVS 112130Z 20012KT 38/11 A2996 RMK A01 T03840105  RH  019%=      5-min Rain = 0
KDVS 112135Z 21009G15KT 38/10 A2996 RMK A01 T03830101  RH  019%=      5-min Rain = 0
KDVS 112140Z 19009G14KT 38/10 A2996 RMK A01 T03820102  RH  019%=      5-min Rain = 0
KDVS 112145Z 18009G15KT 38/10 A2996 RMK A01 T03830103  RH  019%=      5-min Rain = 0
KDVS 112150Z 19007KT 38/10 A2996 RMK A01 T03840102  RH  019%=      5-min Rain = 0
KDVS 112155Z 18006G11KT 38/10 A2996 RMK A01 T03830102  RH  019%=      5-min Rain = 0
KDVS 112200Z 20008G13KT 38/10 A2996 RMK A01 T03830104  RH  019%=      5-min Rain = 0
KDVS 112205Z 20010G18KT 39/10 A2995 RMK A01 T03850104  RH  019%=      5-min Rain = 0
KDVS 112210Z 19011KT 39/10 A2995 RMK A01 T03850099  RH  018%=      5-min Rain = 0
KDVS 112215Z 23008KT 38/10 A2995 RMK A01 T03820098  RH  019%=      5-min Rain = 0
KDVS 112220Z 21006KT 38/10 A2995 RMK A01 T03810100  RH  019%=      5-min Rain = 0
KDVS 112225Z 19012G17KT 38/10 A2995 RMK A01 T03840099  RH  019%=      5-min Rain = 0
KDVS 112230Z 17009G14KT 38/10 A2995 RMK A01 T03830099  RH  019%=      5-min Rain = 0
KDVS 112235Z 21007KT 38/10 A2995 RMK A01 T03830099  RH  019%=      5-min Rain = 0
KDVS 112240Z 24009G14KT 39/10 A2995 RMK A01 T03860098  RH  018%=      5-min Rain = 0
KDVS 112245Z 24007KT 38/10 A2995 RMK A01 T03840098  RH  018%=      5-min Rain = 0
KDVS 112250Z 20007G13KT 39/10 A2995 RMK A01 T03850096  RH  018%=      5-min Rain = 0
KDVS 112255Z 19008KT 39/10 A2995 RMK A01 T03860101  RH  019%=      5-min Rain = 0
KDVS 112300Z 22010KT 39/10 A2995 RMK A01 T03870098  RH  018%=      5-min Rain = 0
KDVS 112305Z 22008G13KT 38/09 A2995 RMK A01 T03840094  RH  018%=      5-min Rain = 0
KDVS 112310Z 22008G13KT 39/10 A2994 RMK A01 T03850096  RH  018%=      5-min Rain = 0
KDVS 112315Z 21008KT 39/10 A2994 RMK A01 T03850095  RH  018%=      5-min Rain = 0
KDVS 112320Z 20006KT 38/10 A2994 RMK A01 T03840097  RH  018%=      5-min Rain = 0
KDVS 112325Z 18008G14KT 39/10 A2994 RMK A01 T03870099  RH  018%=      5-min Rain = 0
KDVS 112330Z 18010KT 39/10 A2994 RMK A01 T03850102  RH  019%=      5-min Rain = 0
KDVS 112335Z 18013KT 38/10 A2994 RMK A01 T03830098  RH  019%=      5-min Rain = 0
KDVS 112340Z 17012G17KT 38/10 A2994 RMK A01 T03800098  RH  019%=      5-min Rain = 0
KDVS 112345Z 18008KT 38/10 A2994 RMK A01 T03800098  RH  019%=      5-min Rain = 0
KDVS 112350Z 17009G15KT 38/10 A2994 RMK A01 T03830099  RH  019%=      5-min Rain = 0
KDVS 112355Z 17012KT 38/10 A2994 RMK A01 T03820097  RH  019%=      5-min Rain = 0
KDVS 120000Z 17011KT 38/10 A2993 RMK A01 T03810096  RH  019%=      5-min Rain = 0
KDVS 120005Z 18009KT 38/10 A2993 RMK A01 T03790096  RH  019%=      5-min Rain = 0
KDVS 120010Z 17010KT 38/10 A2993 RMK A01 T03760095  RH  019%=      5-min Rain = 0
KDVS 120015Z 17010KT 38/10 A2993 RMK A01 T03770095  RH  019%=      5-min Rain = 0
KDVS 120020Z 19011G16KT 37/10 A2993 RMK A01 T03740095  RH  019%=      5-min Rain = 0
KDVS 120025Z 19011KT 37/10 A2993 RMK A01 T03730096  RH  019%=      5-min Rain = 0
KDVS 120030Z 18012KT 37/10 A2993 RMK A01 T03720095  RH  019%=      5-min Rain = 0
KDVS 120035Z 16011KT 37/09 A2993 RMK A01 T03720094  RH  019%=      5-min Rain = 0
KDVS 120040Z 17010KT 37/09 A2993 RMK A01 T03720094  RH  019%=      5-min Rain = 0
KDVS 120045Z 16010KT 37/10 A2993 RMK A01 T03710095  RH  019%=      5-min Rain = 0
KDVS 120050Z 16011KT 37/09 A2993 RMK A01 T03690093  RH  019%=      5-min Rain = 0
KDVS 120055Z 17010KT 37/09 A2993 RMK A01 T03670094  RH  020%=      5-min Rain = 0
KDVS 120100Z 16010KT 37/09 A2993 RMK A01 T03650094  RH  020%=      5-min Rain = 0
KDVS 120105Z 17009KT 36/10 A2993 RMK A01 T03610095  RH  021%=      5-min Rain = 0
KDVS 120110Z 16009KT 36/10 A2993 RMK A01 T03560096  RH  021%=      5-min Rain = 0
KDVS 120115Z 17008KT 35/10 A2993 RMK A01 T03530095  RH  021%=      5-min Rain = 0
KDVS 120120Z 17009KT 35/09 A2993 RMK A01 T03500094  RH  022%=      5-min Rain = 0
KDVS 120125Z 17008KT 35/09 A2993 RMK A01 T03470093  RH  022%=      5-min Rain = 0
KDVS 120130Z 17008KT 34/09 A2993 RMK A01 T03440093  RH  022%=      5-min Rain = 0
KDVS 120135Z 17009KT 34/09 A2993 RMK A01 T03420093  RH  022%=      5-min Rain = 0
KDVS 120140Z 16008KT 34/10 A2993 RMK A01 T03380095  RH  023%=      5-min Rain = 0
KDVS 120145Z 16009KT 34/10 A2993 RMK A01 T03350097  RH  024%=      5-min Rain = 0
KDVS 120150Z 16009KT 33/10 A2994 RMK A01 T03330099  RH  025%=      5-min Rain = 0
KDVS 120155Z 16008KT 33/10 A2994 RMK A01 T03290101  RH  026%=      5-min Rain = 0
KDVS 120200Z 16008KT 33/10 A2994 RMK A01 T03250103  RH  026%=      5-min Rain = 0
KDVS 120205Z 16008KT 32/10 A2994 RMK A01 T03190102  RH  027%=      5-min Rain = 0
KDVS 120210Z 15009KT 32/10 A2994 RMK A01 T03180101  RH  027%=      5-min Rain = 0
KDVS 120215Z 15009KT 32/10 A2994 RMK A01 T03200102  RH  027%=      5-min Rain = 0
KDVS 120220Z 15009KT 32/10 A2994 RMK A01 T03180103  RH  028%=      5-min Rain = 0
KDVS 120225Z 15010KT 32/11 A2994 RMK A01 T03160105  RH  028%=      5-min Rain = 0
KDVS 120230Z 15012KT 32/11 A2995 RMK A01 T03170107  RH  029%=      5-min Rain = 0
KDVS 120235Z 15012KT 32/11 A2995 RMK A01 T03190109  RH  029%=      5-min Rain = 0
KDVS 120240Z 15013KT 32/11 A2995 RMK A01 T03200111  RH  029%=      5-min Rain = 0
KDVS 120245Z 15012KT 32/11 A2995 RMK A01 T03190113  RH  029%=      5-min Rain = 0
KDVS 120250Z 15012KT 32/11 A2996 RMK A01 T03170114  RH  030%=      5-min Rain = 0
KDVS 120255Z 15011KT 32/12 A2996 RMK A01 T03150116  RH  030%=      5-min Rain = 0
KDVS 120300Z 15011KT 32/12 A2996 RMK A01 T03150116  RH  031%=      5-min Rain = 0
KDVS 120305Z 15010KT 31/12 A2997 RMK A01 T03130117  RH  031%=      5-min Rain = 0
KDVS 120310Z 15010KT 31/12 A2997 RMK A01 T03110118  RH  032%=      5-min Rain = 0
KDVS 120315Z 15009KT 31/12 A2998 RMK A01 T03100119  RH  032%=      5-min Rain = 0
KDVS 120320Z 17008KT 31/12 A2999 RMK A01 T03080119  RH  033%=      5-min Rain = 0
KDVS 120325Z 18009KT 31/12 A2999 RMK A01 T03080119  RH  032%=      5-min Rain = 0
KDVS 120330Z 18009KT 31/12 A2999 RMK A01 T03100120  RH  032%=      5-min Rain = 0
KDVS 120335Z 18008KT 31/12 A30 RMK A01 T03100120  RH  032%=      5-min Rain = 0
KDVS 120340Z 18009KT 31/12 A30 RMK A01 T03090119  RH  032%=      5-min Rain = 0
KDVS 120345Z 20010KT 31/12 A3001 RMK A01 T03100120  RH  032%=      5-min Rain = 0
KDVS 120350Z 23010KT 31/12 A3001 RMK A01 T03070124  RH  034%=      5-min Rain = 0
KDVS 120355Z 22009G15KT 31/13 A3002 RMK A01 T03060126  RH  034%=      5-min Rain = 0
KDVS 120400Z 21008KT 31/13 A3002 RMK A01 T03060127  RH  035%=      5-min Rain = 0
KDVS 120405Z 22009KT 31/13 A3003 RMK A01 T03060126  RH  035%=      5-min Rain = 0
KDVS 120410Z 20009KT 31/13 A3003 RMK A01 T03070125  RH  034%=      5-min Rain = 0
KDVS 120415Z 17010KT 31/12 A3002 RMK A01 T03100123  RH  033%=      5-min Rain = 0
KDVS 120420Z 16015KT 31/12 A3001 RMK A01 T03110122  RH  033%=      5-min Rain = 0
KDVS 120425Z 17013G18KT 31/12 A30 RMK A01 T03070122  RH  033%=      5-min Rain = 0
KDVS 120430Z 17016G23KT 30/12 A30 RMK A01 T03030121  RH  034%=      5-min Rain = 0
KDVS 120435Z 17020G25KT 30/11 A30 RMK A01 T03020113  RH  032%=      5-min Rain = 0
KDVS 120440Z 18019G24KT 30/11 A30 RMK A01 T03000107  RH  031%=      5-min Rain = 0
KDVS 120445Z 18016G24KT 30/11 A30 RMK A01 T02960110  RH  033%=      5-min Rain = 0
KDVS 120450Z 18018G26KT 29/12 A30 RMK A01 T02910116  RH  035%=      5-min Rain = 0
KDVS 120455Z 18014G21KT 29/12 A3001 RMK A01 T02860118  RH  037%=      5-min Rain = 0

Page generated in 0.013 seconds.